sensor_id;sensor_type;location;lat;lon;timestamp;P1;durP1;ratioP1;P2;durP2;ratioP2
42614;SDS011;28754;47.700;7.924;2022-08-01T00:02:06;1.77;;;0.98;;
42614;SDS011;28754;47.700;7.924;2022-08-01T00:04:54;2.25;;;1.23;;
42614;SDS011;28754;47.700;7.924;2022-08-01T00:07:40;1.15;;;1.05;;
42614;SDS011;28754;47.700;7.924;2022-08-01T00:10:27;2.42;;;1.38;;
42614;SDS011;28754;47.700;7.924;2022-08-01T00:13:15;2.85;;;1.02;;
42614;SDS011;28754;47.700;7.924;2022-08-01T00:16:01;1.67;;;1.33;;
42614;SDS011;28754;47.700;7.924;2022-08-01T00:18:52;2.08;;;1.20;;
42614;SDS011;28754;47.700;7.924;2022-08-01T00:21:39;1.10;;;1.00;;
42614;SDS011;28754;47.700;7.924;2022-08-01T00:24:26;1.38;;;0.93;;
42614;SDS011;28754;47.700;7.924;2022-08-01T00:27:13;2.38;;;1.13;;
42614;SDS011;28754;47.700;7.924;2022-08-01T00:30:00;2.22;;;1.10;;
42614;SDS011;28754;47.700;7.924;2022-08-01T00:32:46;2.28;;;1.15;;
42614;SDS011;28754;47.700;7.924;2022-08-01T00:35:33;1.92;;;1.08;;
42614;SDS011;28754;47.700;7.924;2022-08-01T00:38:20;3.10;;;1.10;;
42614;SDS011;28754;47.700;7.924;2022-08-01T00:41:06;3.15;;;1.30;;
42614;SDS011;28754;47.700;7.924;2022-08-01T00:43:53;1.23;;;1.00;;
42614;SDS011;28754;47.700;7.924;2022-08-01T00:46:40;1.80;;;1.13;;
42614;SDS011;28754;47.700;7.924;2022-08-01T00:49:27;1.77;;;1.20;;
42614;SDS011;28754;47.700;7.924;2022-08-01T00:52:14;1.55;;;1.23;;
42614;SDS011;28754;47.700;7.924;2022-08-01T00:55:01;1.70;;;1.10;;
42614;SDS011;28754;47.700;7.924;2022-08-01T00:57:48;3.53;;;1.10;;
42614;SDS011;28754;47.700;7.924;2022-08-01T01:00:36;2.42;;;1.20;;
42614;SDS011;28754;47.700;7.924;2022-08-01T01:03:23;4.03;;;1.30;;
42614;SDS011;28754;47.700;7.924;2022-08-01T01:09:24;2.70;;;2.20;;
42614;SDS011;28754;47.700;7.924;2022-08-01T01:12:31;7.40;;;1.88;;
42614;SDS011;28754;47.700;7.924;2022-08-01T01:15:30;2.00;;;1.10;;
42614;SDS011;28754;47.700;7.924;2022-08-01T01:18:23;2.85;;;1.60;;
42614;SDS011;28754;47.700;7.924;2022-08-01T01:27:15;2.00;;;1.30;;
42614;SDS011;28754;47.700;7.924;2022-08-01T01:30:10;3.72;;;1.88;;
42614;SDS011;28754;47.700;7.924;2022-08-01T01:32:58;2.35;;;1.48;;
42614;SDS011;28754;47.700;7.924;2022-08-01T01:35:52;2.92;;;1.88;;
42614;SDS011;28754;47.700;7.924;2022-08-01T01:38:45;2.85;;;2.05;;
42614;SDS011;28754;47.700;7.924;2022-08-01T01:41:33;4.35;;;1.50;;
42614;SDS011;28754;47.700;7.924;2022-08-01T01:44:23;2.13;;;1.60;;
42614;SDS011;28754;47.700;7.924;2022-08-01T01:47:13;2.72;;;1.58;;
42614;SDS011;28754;47.700;7.924;2022-08-01T01:50:02;4.10;;;1.92;;
42614;SDS011;28754;47.700;7.924;2022-08-01T01:52:52;3.63;;;1.67;;
42614;SDS011;28754;47.700;7.924;2022-08-01T01:55:43;2.17;;;1.55;;
42614;SDS011;28754;47.700;7.924;2022-08-01T01:58:34;4.07;;;2.08;;
42614;SDS011;28754;47.700;7.924;2022-08-01T02:01:25;4.00;;;2.00;;
42614;SDS011;28754;47.700;7.924;2022-08-01T02:04:16;2.33;;;1.70;;
42614;SDS011;28754;47.700;7.924;2022-08-01T02:07:06;2.60;;;1.70;;
42614;SDS011;28754;47.700;7.924;2022-08-01T02:09:56;2.75;;;1.63;;
42614;SDS011;28754;47.700;7.924;2022-08-01T02:12:45;5.20;;;2.25;;
42614;SDS011;28754;47.700;7.924;2022-08-01T02:15:35;3.10;;;1.75;;
42614;SDS011;28754;47.700;7.924;2022-08-01T02:18:25;3.25;;;2.00;;
42614;SDS011;28754;47.700;7.924;2022-08-01T02:21:14;2.70;;;2.25;;
42614;SDS011;28754;47.700;7.924;2022-08-01T02:24:13;4.72;;;2.00;;
42614;SDS011;28754;47.700;7.924;2022-08-01T02:27:41;4.78;;;2.25;;
42614;SDS011;28754;47.700;7.924;2022-08-01T02:30:34;2.83;;;1.95;;
42614;SDS011;28754;47.700;7.924;2022-08-01T02:33:24;4.72;;;2.10;;
42614;SDS011;28754;47.700;7.924;2022-08-01T02:36:25;3.40;;;1.75;;
42614;SDS011;28754;47.700;7.924;2022-08-01T02:39:16;2.05;;;1.80;;
42614;SDS011;28754;47.700;7.924;2022-08-01T02:42:07;2.83;;;2.05;;
42614;SDS011;28754;47.700;7.924;2022-08-01T02:44:57;3.65;;;1.50;;
42614;SDS011;28754;47.700;7.924;2022-08-01T02:47:44;2.03;;;1.55;;
42614;SDS011;28754;47.700;7.924;2022-08-01T02:50:34;4.57;;;1.92;;
42614;SDS011;28754;47.700;7.924;2022-08-01T02:53:23;2.90;;;2.22;;
42614;SDS011;28754;47.700;7.924;2022-08-01T02:56:13;2.45;;;1.85;;
42614;SDS011;28754;47.700;7.924;2022-08-01T02:59:03;2.75;;;2.08;;
42614;SDS011;28754;47.700;7.924;2022-08-01T03:01:55;2.88;;;1.92;;
42614;SDS011;28754;47.700;7.924;2022-08-01T03:04:43;5.53;;;2.22;;
42614;SDS011;28754;47.700;7.924;2022-08-01T03:07:31;4.05;;;2.17;;
42614;SDS011;28754;47.700;7.924;2022-08-01T03:10:19;4.20;;;2.33;;
42614;SDS011;28754;47.700;7.924;2022-08-01T03:13:06;2.78;;;2.13;;
42614;SDS011;28754;47.700;7.924;2022-08-01T03:15:55;2.90;;;2.13;;
42614;SDS011;28754;47.700;7.924;2022-08-01T03:18:43;2.95;;;1.88;;
42614;SDS011;28754;47.700;7.924;2022-08-01T03:21:32;3.92;;;2.13;;
42614;SDS011;28754;47.700;7.924;2022-08-01T03:24:20;5.32;;;2.78;;
42614;SDS011;28754;47.700;7.924;2022-08-01T03:27:09;2.80;;;1.85;;
42614;SDS011;28754;47.700;7.924;2022-08-01T03:30:00;2.28;;;1.80;;
42614;SDS011;28754;47.700;7.924;2022-08-01T03:32:50;2.72;;;1.95;;
42614;SDS011;28754;47.700;7.924;2022-08-01T03:35:39;4.25;;;1.67;;
42614;SDS011;28754;47.700;7.924;2022-08-01T03:38:33;4.47;;;1.98;;
42614;SDS011;28754;47.700;7.924;2022-08-01T03:41:27;3.00;;;2.25;;
42614;SDS011;28754;47.700;7.924;2022-08-01T03:44:25;2.80;;;1.90;;
42614;SDS011;28754;47.700;7.924;2022-08-01T03:47:17;4.05;;;2.08;;
42614;SDS011;28754;47.700;7.924;2022-08-01T03:50:11;3.17;;;2.35;;
42614;SDS011;28754;47.700;7.924;2022-08-01T03:53:02;3.13;;;2.75;;
42614;SDS011;28754;47.700;7.924;2022-08-01T03:55:53;3.50;;;1.90;;
42614;SDS011;28754;47.700;7.924;2022-08-01T03:58:42;2.10;;;1.90;;
42614;SDS011;28754;47.700;7.924;2022-08-01T04:01:31;2.10;;;1.73;;
42614;SDS011;28754;47.700;7.924;2022-08-01T04:04:22;3.40;;;1.90;;
42614;SDS011;28754;47.700;7.924;2022-08-01T04:07:28;2.35;;;1.95;;
42614;SDS011;28754;47.700;7.924;2022-08-01T04:10:18;2.90;;;1.95;;
42614;SDS011;28754;47.700;7.924;2022-08-01T04:13:04;3.47;;;2.00;;
42614;SDS011;28754;47.700;7.924;2022-08-01T04:15:51;4.45;;;2.45;;
42614;SDS011;28754;47.700;7.924;2022-08-01T04:18:38;5.35;;;2.05;;
42614;SDS011;28754;47.700;7.924;2022-08-01T04:21:25;2.35;;;1.75;;
42614;SDS011;28754;47.700;7.924;2022-08-01T04:24:16;2.25;;;1.70;;
42614;SDS011;28754;47.700;7.924;2022-08-01T04:27:08;4.18;;;1.90;;
42614;SDS011;28754;47.700;7.924;2022-08-01T04:30:00;2.30;;;1.75;;
42614;SDS011;28754;47.700;7.924;2022-08-01T04:32:47;2.63;;;2.10;;
42614;SDS011;28754;47.700;7.924;2022-08-01T04:35:36;2.92;;;2.00;;
42614;SDS011;28754;47.700;7.924;2022-08-01T04:38:27;2.92;;;1.95;;
42614;SDS011;28754;47.700;7.924;2022-08-01T04:41:17;4.97;;;2.22;;
42614;SDS011;28754;47.700;7.924;2022-08-01T04:44:05;4.22;;;2.20;;
42614;SDS011;28754;47.700;7.924;2022-08-01T04:46:53;2.75;;;2.00;;
42614;SDS011;28754;47.700;7.924;2022-08-01T04:49:42;2.50;;;1.90;;
42614;SDS011;28754;47.700;7.924;2022-08-01T04:52:35;3.92;;;2.30;;
42614;SDS011;28754;47.700;7.924;2022-08-01T04:55:23;4.22;;;2.47;;
42614;SDS011;28754;47.700;7.924;2022-08-01T04:58:10;3.08;;;2.30;;
42614;SDS011;28754;47.700;7.924;2022-08-01T05:00:58;5.35;;;2.38;;
42614;SDS011;28754;47.700;7.924;2022-08-01T05:03:45;2.75;;;2.03;;
42614;SDS011;28754;47.700;7.924;2022-08-01T05:06:31;3.20;;;1.90;;
42614;SDS011;28754;47.700;7.924;2022-08-01T05:09:18;2.17;;;1.95;;
42614;SDS011;28754;47.700;7.924;2022-08-01T05:12:05;2.83;;;1.90;;
42614;SDS011;28754;47.700;7.924;2022-08-01T05:14:52;2.88;;;1.92;;
42614;SDS011;28754;47.700;7.924;2022-08-01T05:17:39;2.33;;;1.90;;
42614;SDS011;28754;47.700;7.924;2022-08-01T05:20:25;2.20;;;2.00;;
42614;SDS011;28754;47.700;7.924;2022-08-01T05:23:12;4.10;;;2.20;;
42614;SDS011;28754;47.700;7.924;2022-08-01T05:25:59;2.83;;;2.05;;
42614;SDS011;28754;47.700;7.924;2022-08-01T05:28:46;14.63;;;4.85;;
42614;SDS011;28754;47.700;7.924;2022-08-01T05:31:32;11.25;;;3.90;;
42614;SDS011;28754;47.700;7.924;2022-08-01T05:34:22;7.07;;;3.10;;
42614;SDS011;28754;47.700;7.924;2022-08-01T05:37:09;8.38;;;2.40;;
42614;SDS011;28754;47.700;7.924;2022-08-01T05:39:56;4.97;;;2.50;;
42614;SDS011;28754;47.700;7.924;2022-08-01T05:42:43;3.10;;;2.08;;
42614;SDS011;28754;47.700;7.924;2022-08-01T05:45:29;12.05;;;2.47;;
42614;SDS011;28754;47.700;7.924;2022-08-01T05:48:16;4.70;;;2.30;;
42614;SDS011;28754;47.700;7.924;2022-08-01T05:51:03;3.80;;;2.40;;
42614;SDS011;28754;47.700;7.924;2022-08-01T05:53:50;2.90;;;2.13;;
42614;SDS011;28754;47.700;7.924;2022-08-01T05:56:37;3.72;;;2.72;;
42614;SDS011;28754;47.700;7.924;2022-08-01T05:59:24;4.65;;;2.55;;
42614;SDS011;28754;47.700;7.924;2022-08-01T06:02:11;4.13;;;2.20;;
42614;SDS011;28754;47.700;7.924;2022-08-01T06:04:58;16.25;;;3.00;;
42614;SDS011;28754;47.700;7.924;2022-08-01T06:07:45;3.30;;;2.45;;
42614;SDS011;28754;47.700;7.924;2022-08-01T06:10:31;4.95;;;2.47;;
42614;SDS011;28754;47.700;7.924;2022-08-01T06:13:18;11.45;;;2.60;;
42614;SDS011;28754;47.700;7.924;2022-08-01T06:16:05;4.75;;;2.15;;
42614;SDS011;28754;47.700;7.924;2022-08-01T06:18:52;6.10;;;2.47;;
42614;SDS011;28754;47.700;7.924;2022-08-01T06:21:39;4.45;;;2.30;;
42614;SDS011;28754;47.700;7.924;2022-08-01T06:24:25;9.93;;;2.60;;
42614;SDS011;28754;47.700;7.924;2022-08-01T06:27:12;3.28;;;1.95;;
42614;SDS011;28754;47.700;7.924;2022-08-01T06:29:59;3.72;;;2.47;;
42614;SDS011;28754;47.700;7.924;2022-08-01T06:32:46;3.38;;;2.10;;
42614;SDS011;28754;47.700;7.924;2022-08-01T06:35:33;5.28;;;1.90;;
42614;SDS011;28754;47.700;7.924;2022-08-01T06:38:20;2.42;;;2.10;;
42614;SDS011;28754;47.700;7.924;2022-08-01T06:41:06;2.40;;;2.10;;
42614;SDS011;28754;47.700;7.924;2022-08-01T06:43:53;3.67;;;1.80;;
42614;SDS011;28754;47.700;7.924;2022-08-01T06:46:40;3.30;;;2.20;;
42614;SDS011;28754;47.700;7.924;2022-08-01T06:49:26;3.78;;;1.98;;
42614;SDS011;28754;47.700;7.924;2022-08-01T06:52:13;4.07;;;2.08;;
42614;SDS011;28754;47.700;7.924;2022-08-01T06:55:00;3.03;;;2.15;;
42614;SDS011;28754;47.700;7.924;2022-08-01T06:57:50;2.65;;;2.03;;
42614;SDS011;28754;47.700;7.924;2022-08-01T07:00:38;4.18;;;2.05;;
42614;SDS011;28754;47.700;7.924;2022-08-01T07:03:25;2.88;;;2.08;;
42614;SDS011;28754;47.700;7.924;2022-08-01T07:06:13;2.78;;;1.98;;
42614;SDS011;28754;47.700;7.924;2022-08-01T07:09:00;3.58;;;2.38;;
42614;SDS011;28754;47.700;7.924;2022-08-01T07:11:48;3.08;;;1.92;;
42614;SDS011;28754;47.700;7.924;2022-08-01T07:14:36;5.05;;;1.95;;
42614;SDS011;28754;47.700;7.924;2022-08-01T07:17:23;3.28;;;2.13;;
42614;SDS011;28754;47.700;7.924;2022-08-01T07:20:10;4.20;;;2.65;;
42614;SDS011;28754;47.700;7.924;2022-08-01T07:22:58;3.67;;;2.53;;
42614;SDS011;28754;47.700;7.924;2022-08-01T07:25:45;2.70;;;2.05;;
42614;SDS011;28754;47.700;7.924;2022-08-01T07:28:31;5.38;;;2.10;;
42614;SDS011;28754;47.700;7.924;2022-08-01T07:31:18;3.03;;;2.22;;
42614;SDS011;28754;47.700;7.924;2022-08-01T07:34:05;2.45;;;2.08;;
42614;SDS011;28754;47.700;7.924;2022-08-01T07:36:52;3.63;;;2.38;;
42614;SDS011;28754;47.700;7.924;2022-08-01T07:39:39;3.28;;;1.95;;
42614;SDS011;28754;47.700;7.924;2022-08-01T07:42:25;2.80;;;2.28;;
42614;SDS011;28754;47.700;7.924;2022-08-01T07:45:12;2.80;;;2.22;;
42614;SDS011;28754;47.700;7.924;2022-08-01T07:48:04;3.92;;;1.95;;
42614;SDS011;28754;47.700;7.924;2022-08-01T07:50:52;5.88;;;2.90;;
42614;SDS011;28754;47.700;7.924;2022-08-01T07:53:39;2.55;;;2.00;;
42614;SDS011;28754;47.700;7.924;2022-08-01T07:56:26;2.35;;;2.00;;
42614;SDS011;28754;47.700;7.924;2022-08-01T07:59:12;3.28;;;2.20;;
42614;SDS011;28754;47.700;7.924;2022-08-01T08:01:59;2.92;;;2.53;;
42614;SDS011;28754;47.700;7.924;2022-08-01T08:04:46;3.08;;;2.05;;
42614;SDS011;28754;47.700;7.924;2022-08-01T08:07:32;3.53;;;1.80;;
42614;SDS011;28754;47.700;7.924;2022-08-01T08:10:19;2.92;;;2.60;;
42614;SDS011;28754;47.700;7.924;2022-08-01T08:13:06;3.03;;;2.20;;
42614;SDS011;28754;47.700;7.924;2022-08-01T08:15:53;2.58;;;2.13;;
42614;SDS011;28754;47.700;7.924;2022-08-01T08:18:40;2.47;;;2.08;;
42614;SDS011;28754;47.700;7.924;2022-08-01T08:21:27;2.63;;;1.80;;
42614;SDS011;28754;47.700;7.924;2022-08-01T08:24:14;3.13;;;2.10;;
42614;SDS011;28754;47.700;7.924;2022-08-01T08:27:06;2.75;;;2.10;;
42614;SDS011;28754;47.700;7.924;2022-08-01T08:29:53;2.65;;;2.00;;
42614;SDS011;28754;47.700;7.924;2022-08-01T08:32:40;3.10;;;2.05;;
42614;SDS011;28754;47.700;7.924;2022-08-01T08:35:27;2.40;;;1.90;;
42614;SDS011;28754;47.700;7.924;2022-08-01T08:38:13;2.92;;;1.98;;
42614;SDS011;28754;47.700;7.924;2022-08-01T08:41:00;5.65;;;2.20;;
42614;SDS011;28754;47.700;7.924;2022-08-01T08:43:47;2.22;;;1.85;;
42614;SDS011;28754;47.700;7.924;2022-08-01T08:46:35;4.18;;;2.10;;
42614;SDS011;28754;47.700;7.924;2022-08-01T08:49:33;1.95;;;1.75;;
42614;SDS011;28754;47.700;7.924;2022-08-01T08:52:21;4.75;;;1.80;;
42614;SDS011;28754;47.700;7.924;2022-08-01T08:55:08;3.53;;;2.30;;
42614;SDS011;28754;47.700;7.924;2022-08-01T08:58:00;3.92;;;2.15;;
42614;SDS011;28754;47.700;7.924;2022-08-01T09:00:52;2.33;;;1.80;;
42614;SDS011;28754;47.700;7.924;2022-08-01T09:03:40;2.35;;;2.03;;
42614;SDS011;28754;47.700;7.924;2022-08-01T09:06:27;2.10;;;1.90;;
42614;SDS011;28754;47.700;7.924;2022-08-01T09:09:15;4.32;;;1.88;;
42614;SDS011;28754;47.700;7.924;2022-08-01T09:12:02;2.80;;;2.13;;
42614;SDS011;28754;47.700;7.924;2022-08-01T09:14:49;2.42;;;1.95;;
42614;SDS011;28754;47.700;7.924;2022-08-01T09:17:40;2.33;;;1.83;;
42614;SDS011;28754;47.700;7.924;2022-08-01T09:20:27;7.15;;;1.67;;
42614;SDS011;28754;47.700;7.924;2022-08-01T09:23:30;2.33;;;1.63;;
42614;SDS011;28754;47.700;7.924;2022-08-01T09:26:29;2.22;;;1.70;;
42614;SDS011;28754;47.700;7.924;2022-08-01T09:29:21;3.88;;;2.15;;
42614;SDS011;28754;47.700;7.924;2022-08-01T09:32:14;1.80;;;1.50;;
42614;SDS011;28754;47.700;7.924;2022-08-01T09:38:13;3.05;;;1.60;;
42614;SDS011;28754;47.700;7.924;2022-08-01T09:41:14;3.22;;;1.88;;
42614;SDS011;28754;47.700;7.924;2022-08-01T09:44:01;2.30;;;2.03;;
42614;SDS011;28754;47.700;7.924;2022-08-01T09:46:48;2.35;;;1.58;;
42614;SDS011;28754;47.700;7.924;2022-08-01T09:49:37;4.15;;;1.25;;
42614;SDS011;28754;47.700;7.924;2022-08-01T09:52:26;2.25;;;1.05;;
42614;SDS011;28754;47.700;7.924;2022-08-01T09:55:13;1.98;;;1.60;;
42614;SDS011;28754;47.700;7.924;2022-08-01T09:58:07;1.48;;;1.38;;
42614;SDS011;28754;47.700;7.924;2022-08-01T10:00:59;2.97;;;1.38;;
42614;SDS011;28754;47.700;7.924;2022-08-01T10:03:46;2.67;;;1.20;;
42614;SDS011;28754;47.700;7.924;2022-08-01T10:06:50;1.40;;;0.95;;
42614;SDS011;28754;47.700;7.924;2022-08-01T10:09:39;3.08;;;1.30;;
42614;SDS011;28754;47.700;7.924;2022-08-01T10:12:26;1.38;;;0.98;;
42614;SDS011;28754;47.700;7.924;2022-08-01T10:15:14;2.20;;;1.17;;
42614;SDS011;28754;47.700;7.924;2022-08-01T10:18:04;1.92;;;1.40;;
42614;SDS011;28754;47.700;7.924;2022-08-01T10:20:53;2.17;;;1.33;;
42614;SDS011;28754;47.700;7.924;2022-08-01T10:23:41;2.00;;;1.30;;
42614;SDS011;28754;47.700;7.924;2022-08-01T10:26:28;3.50;;;1.30;;
42614;SDS011;28754;47.700;7.924;2022-08-01T10:29:19;2.40;;;1.15;;
42614;SDS011;28754;47.700;7.924;2022-08-01T10:32:08;1.17;;;0.90;;
42614;SDS011;28754;47.700;7.924;2022-08-01T10:34:55;1.50;;;1.00;;
42614;SDS011;28754;47.700;7.924;2022-08-01T10:37:44;3.47;;;1.00;;
42614;SDS011;28754;47.700;7.924;2022-08-01T10:40:32;2.63;;;1.13;;
42614;SDS011;28754;47.700;7.924;2022-08-01T10:43:21;3.55;;;1.02;;
42614;SDS011;28754;47.700;7.924;2022-08-01T10:46:08;1.85;;;0.95;;
42614;SDS011;28754;47.700;7.924;2022-08-01T10:49:30;1.42;;;1.15;;
42614;SDS011;28754;47.700;7.924;2022-08-01T10:52:15;1.58;;;1.13;;
42614;SDS011;28754;47.700;7.924;2022-08-01T10:55:07;1.95;;;1.30;;
42614;SDS011;28754;47.700;7.924;2022-08-01T10:57:55;1.45;;;1.35;;
42614;SDS011;28754;47.700;7.924;2022-08-01T11:00:41;2.85;;;0.95;;
42614;SDS011;28754;47.700;7.924;2022-08-01T11:03:36;3.13;;;1.33;;
42614;SDS011;28754;47.700;7.924;2022-08-01T11:09:20;1.77;;;1.38;;
42614;SDS011;28754;47.700;7.924;2022-08-01T11:12:17;4.43;;;0.65;;
42614;SDS011;28754;47.700;7.924;2022-08-01T11:17:53;1.75;;;1.02;;
42614;SDS011;28754;47.700;7.924;2022-08-01T11:20:43;1.42;;;0.70;;
42614;SDS011;28754;47.700;7.924;2022-08-01T11:23:49;1.80;;;1.13;;
42614;SDS011;28754;47.700;7.924;2022-08-01T11:26:40;0.60;;;0.50;;
42614;SDS011;28754;47.700;7.924;2022-08-01T11:33:07;1.13;;;0.80;;
42614;SDS011;28754;47.700;7.924;2022-08-01T11:41:46;0.82;;;0.63;;
42614;SDS011;28754;47.700;7.924;2022-08-01T11:44:47;1.15;;;1.00;;
42614;SDS011;28754;47.700;7.924;2022-08-01T11:47:47;1.23;;;0.60;;
42614;SDS011;28754;47.700;7.924;2022-08-01T11:50:35;1.13;;;0.70;;
42614;SDS011;28754;47.700;7.924;2022-08-01T11:53:22;1.95;;;0.43;;
42614;SDS011;28754;47.700;7.924;2022-08-01T11:56:09;0.90;;;0.73;;
42614;SDS011;28754;47.700;7.924;2022-08-01T11:59:00;2.00;;;0.73;;
42614;SDS011;28754;47.700;7.924;2022-08-01T12:01:47;1.13;;;0.50;;
42614;SDS011;28754;47.700;7.924;2022-08-01T12:07:47;1.13;;;0.70;;
42614;SDS011;28754;47.700;7.924;2022-08-01T12:10:37;1.35;;;0.65;;
42614;SDS011;28754;47.700;7.924;2022-08-01T12:13:23;1.83;;;0.93;;
42614;SDS011;28754;47.700;7.924;2022-08-01T12:16:11;0.68;;;0.57;;
42614;SDS011;28754;47.700;7.924;2022-08-01T12:18:58;1.52;;;1.05;;
42614;SDS011;28754;47.700;7.924;2022-08-01T12:21:45;2.05;;;0.90;;
42614;SDS011;28754;47.700;7.924;2022-08-01T12:24:50;4.57;;;0.82;;
42614;SDS011;28754;47.700;7.924;2022-08-01T12:27:38;2.90;;;0.90;;
42614;SDS011;28754;47.700;7.924;2022-08-01T12:30:28;1.38;;;0.77;;
42614;SDS011;28754;47.700;7.924;2022-08-01T12:33:22;1.65;;;1.20;;
42614;SDS011;28754;47.700;7.924;2022-08-01T12:36:09;1.48;;;1.15;;
42614;SDS011;28754;47.700;7.924;2022-08-01T12:38:56;4.53;;;1.10;;
42614;SDS011;28754;47.700;7.924;2022-08-01T12:41:45;1.45;;;1.00;;
42614;SDS011;28754;47.700;7.924;2022-08-01T12:44:32;1.45;;;1.02;;
42614;SDS011;28754;47.700;7.924;2022-08-01T12:47:19;1.15;;;0.90;;
42614;SDS011;28754;47.700;7.924;2022-08-01T12:50:08;1.58;;;1.00;;
42614;SDS011;28754;47.700;7.924;2022-08-01T12:53:04;1.75;;;0.70;;
42614;SDS011;28754;47.700;7.924;2022-08-01T12:55:52;5.70;;;1.48;;
42614;SDS011;28754;47.700;7.924;2022-08-01T12:58:41;2.65;;;1.20;;
42614;SDS011;28754;47.700;7.924;2022-08-01T13:01:27;5.22;;;1.30;;
42614;SDS011;28754;47.700;7.924;2022-08-01T13:04:14;1.73;;;1.27;;
42614;SDS011;28754;47.700;7.924;2022-08-01T13:07:01;4.03;;;1.02;;
42614;SDS011;28754;47.700;7.924;2022-08-01T13:09:51;2.15;;;0.90;;
42614;SDS011;28754;47.700;7.924;2022-08-01T13:12:38;2.08;;;1.20;;
42614;SDS011;28754;47.700;7.924;2022-08-01T13:15:37;1.38;;;0.95;;
42614;SDS011;28754;47.700;7.924;2022-08-01T13:18:30;1.10;;;0.90;;
42614;SDS011;28754;47.700;7.924;2022-08-01T13:21:19;1.38;;;1.00;;
42614;SDS011;28754;47.700;7.924;2022-08-01T13:24:14;1.55;;;1.30;;
42614;SDS011;28754;47.700;7.924;2022-08-01T13:27:02;1.80;;;1.30;;
42614;SDS011;28754;47.700;7.924;2022-08-01T13:29:50;1.38;;;1.20;;
42614;SDS011;28754;47.700;7.924;2022-08-01T13:32:38;4.25;;;1.30;;
42614;SDS011;28754;47.700;7.924;2022-08-01T13:35:26;2.88;;;1.27;;
42614;SDS011;28754;47.700;7.924;2022-08-01T13:38:13;3.50;;;2.05;;
42614;SDS011;28754;47.700;7.924;2022-08-01T13:40:59;1.20;;;1.05;;
42614;SDS011;28754;47.700;7.924;2022-08-01T13:43:46;0.93;;;0.80;;
42614;SDS011;28754;47.700;7.924;2022-08-01T13:46:33;1.42;;;1.17;;
42614;SDS011;28754;47.700;7.924;2022-08-01T13:49:21;2.28;;;1.25;;
42614;SDS011;28754;47.700;7.924;2022-08-01T13:52:07;5.15;;;1.45;;
42614;SDS011;28754;47.700;7.924;2022-08-01T13:54:54;1.42;;;1.20;;
42614;SDS011;28754;47.700;7.924;2022-08-01T13:57:41;1.60;;;1.23;;
42614;SDS011;28754;47.700;7.924;2022-08-01T14:00:27;2.17;;;1.58;;
42614;SDS011;28754;47.700;7.924;2022-08-01T14:03:14;3.05;;;1.52;;
42614;SDS011;28754;47.700;7.924;2022-08-01T14:06:02;1.88;;;1.30;;
42614;SDS011;28754;47.700;7.924;2022-08-01T14:08:49;3.90;;;1.00;;
42614;SDS011;28754;47.700;7.924;2022-08-01T14:11:36;1.30;;;1.02;;
42614;SDS011;28754;47.700;7.924;2022-08-01T14:14:23;1.85;;;1.40;;
42614;SDS011;28754;47.700;7.924;2022-08-01T14:17:10;2.45;;;1.30;;
42614;SDS011;28754;47.700;7.924;2022-08-01T14:19:56;1.90;;;1.50;;
42614;SDS011;28754;47.700;7.924;2022-08-01T14:22:48;2.92;;;1.73;;
42614;SDS011;28754;47.700;7.924;2022-08-01T14:25:35;1.20;;;1.10;;
42614;SDS011;28754;47.700;7.924;2022-08-01T14:28:23;1.45;;;1.15;;
42614;SDS011;28754;47.700;7.924;2022-08-01T14:31:13;2.35;;;1.50;;
42614;SDS011;28754;47.700;7.924;2022-08-01T14:33:59;1.92;;;1.50;;
42614;SDS011;28754;47.700;7.924;2022-08-01T14:36:47;3.67;;;1.70;;
42614;SDS011;28754;47.700;7.924;2022-08-01T14:39:33;2.30;;;1.20;;
42614;SDS011;28754;47.700;7.924;2022-08-01T14:42:20;2.30;;;1.48;;
42614;SDS011;28754;47.700;7.924;2022-08-01T14:45:07;2.25;;;1.10;;
42614;SDS011;28754;47.700;7.924;2022-08-01T14:47:54;1.00;;;0.80;;
42614;SDS011;28754;47.700;7.924;2022-08-01T14:50:41;1.52;;;1.25;;
42614;SDS011;28754;47.700;7.924;2022-08-01T14:53:28;1.45;;;1.05;;
42614;SDS011;28754;47.700;7.924;2022-08-01T14:56:15;5.03;;;1.05;;
42614;SDS011;28754;47.700;7.924;2022-08-01T14:59:01;1.60;;;1.15;;
42614;SDS011;28754;47.700;7.924;2022-08-01T15:01:48;3.30;;;1.38;;
42614;SDS011;28754;47.700;7.924;2022-08-01T15:04:35;3.28;;;1.30;;
42614;SDS011;28754;47.700;7.924;2022-08-01T15:07:21;4.93;;;1.42;;
42614;SDS011;28754;47.700;7.924;2022-08-01T15:10:08;1.77;;;1.20;;
42614;SDS011;28754;47.700;7.924;2022-08-01T15:12:55;1.55;;;1.33;;
42614;SDS011;28754;47.700;7.924;2022-08-01T15:15:43;2.33;;;1.45;;
42614;SDS011;28754;47.700;7.924;2022-08-01T15:18:29;1.80;;;1.20;;
42614;SDS011;28754;47.700;7.924;2022-08-01T15:21:16;2.58;;;1.30;;
42614;SDS011;28754;47.700;7.924;2022-08-01T15:24:03;2.55;;;1.48;;
42614;SDS011;28754;47.700;7.924;2022-08-01T15:26:50;1.60;;;1.50;;
42614;SDS011;28754;47.700;7.924;2022-08-01T15:29:37;2.35;;;1.40;;
42614;SDS011;28754;47.700;7.924;2022-08-01T15:32:24;2.45;;;1.20;;
42614;SDS011;28754;47.700;7.924;2022-08-01T15:35:11;3.22;;;1.75;;
42614;SDS011;28754;47.700;7.924;2022-08-01T15:37:57;1.95;;;1.55;;
42614;SDS011;28754;47.700;7.924;2022-08-01T15:40:44;1.50;;;1.10;;
42614;SDS011;28754;47.700;7.924;2022-08-01T15:43:30;2.63;;;1.70;;
42614;SDS011;28754;47.700;7.924;2022-08-01T15:46:17;2.60;;;1.45;;
42614;SDS011;28754;47.700;7.924;2022-08-01T15:49:04;5.57;;;1.77;;
42614;SDS011;28754;47.700;7.924;2022-08-01T15:51:52;5.78;;;1.50;;
42614;SDS011;28754;47.700;7.924;2022-08-01T15:54:38;2.97;;;1.10;;
42614;SDS011;28754;47.700;7.924;2022-08-01T15:57:26;2.70;;;1.15;;
42614;SDS011;28754;47.700;7.924;2022-08-01T16:00:13;1.83;;;1.20;;
42614;SDS011;28754;47.700;7.924;2022-08-01T16:03:00;1.92;;;1.33;;
42614;SDS011;28754;47.700;7.924;2022-08-01T16:05:47;1.73;;;1.23;;
42614;SDS011;28754;47.700;7.924;2022-08-01T16:08:35;1.75;;;1.55;;
42614;SDS011;28754;47.700;7.924;2022-08-01T16:11:22;1.73;;;1.27;;
42614;SDS011;28754;47.700;7.924;2022-08-01T16:14:11;1.65;;;1.45;;
42614;SDS011;28754;47.700;7.924;2022-08-01T16:16:58;2.80;;;1.38;;
42614;SDS011;28754;47.700;7.924;2022-08-01T16:19:45;3.08;;;1.17;;
42614;SDS011;28754;47.700;7.924;2022-08-01T16:22:31;2.17;;;1.70;;
42614;SDS011;28754;47.700;7.924;2022-08-01T16:25:19;1.80;;;1.38;;
42614;SDS011;28754;47.700;7.924;2022-08-01T16:28:06;2.03;;;1.70;;
42614;SDS011;28754;47.700;7.924;2022-08-01T16:30:54;2.22;;;1.42;;
42614;SDS011;28754;47.700;7.924;2022-08-01T16:33:41;2.22;;;1.38;;
42614;SDS011;28754;47.700;7.924;2022-08-01T16:36:34;1.88;;;1.65;;
42614;SDS011;28754;47.700;7.924;2022-08-01T16:39:21;1.83;;;1.40;;
42614;SDS011;28754;47.700;7.924;2022-08-01T16:42:07;3.00;;;1.88;;
42614;SDS011;28754;47.700;7.924;2022-08-01T16:44:54;3.70;;;1.70;;
42614;SDS011;28754;47.700;7.924;2022-08-01T16:47:41;3.90;;;1.63;;
42614;SDS011;28754;47.700;7.924;2022-08-01T16:50:28;4.90;;;2.03;;
42614;SDS011;28754;47.700;7.924;2022-08-01T16:53:15;2.28;;;1.63;;
42614;SDS011;28754;47.700;7.924;2022-08-01T16:56:06;3.85;;;2.17;;
42614;SDS011;28754;47.700;7.924;2022-08-01T16:58:53;2.30;;;2.00;;
42614;SDS011;28754;47.700;7.924;2022-08-01T17:01:39;4.05;;;2.03;;
42614;SDS011;28754;47.700;7.924;2022-08-01T17:04:26;2.90;;;2.08;;
42614;SDS011;28754;47.700;7.924;2022-08-01T17:07:13;2.60;;;1.90;;
42614;SDS011;28754;47.700;7.924;2022-08-01T17:10:00;3.97;;;2.88;;
42614;SDS011;28754;47.700;7.924;2022-08-01T17:12:47;3.30;;;2.17;;
42614;SDS011;28754;47.700;7.924;2022-08-01T17:15:34;3.92;;;2.17;;
42614;SDS011;28754;47.700;7.924;2022-08-01T17:18:21;5.38;;;2.05;;
42614;SDS011;28754;47.700;7.924;2022-08-01T17:21:07;3.63;;;1.90;;
42614;SDS011;28754;47.700;7.924;2022-08-01T17:23:54;3.47;;;1.85;;
42614;SDS011;28754;47.700;7.924;2022-08-01T17:26:41;2.55;;;2.20;;
42614;SDS011;28754;47.700;7.924;2022-08-01T17:29:28;5.35;;;2.33;;